Greenfield, Tennessee
Current Conditions -  °F | °C
As of 3:35 PM on Friday 28 Nov 2014 (Local Time) from KUCY Reporting Station
Clear Clear  
Wind Chill: 41°   Ceiling: Unl
Heat Index: 46°   Visibility: 10mi
Dew Point: 27°   Wind: 13mph
Humidity: 46%   Direction: 180°S
Pressure: 30.14"   Gusts: NA
Location:  36.15°N, 88.8°W
Report Text: KUCY 282135Z AUTO 18011KT 10SM CLR 08/M03 A3014 RMK
Loading
Personal Weather Stations






























Interactive Weather Map New forecast layout! Learn more

10-Day Weather Forecast

Advertisements
Track Severe Weather on mobile